Time;durP1;ratioP1;P1;durP2;ratioP2;P2;SDS_P1;SDS_P2;PMS_P1;PMS_P2;Temp;Humidity;BMP_temperature;BMP_pressure;BME280_temperature;BME280_humidity;BME280_pressure;Samples;Min_cycle;Max_cycle;Signal;HPM_P1;HPM_P2
2022/01/18 00:01:37;;;;;;;94.28;36.55;;;0.00;99.90;;;;;;4221120;28;20040;-80
2022/01/18 00:03:39;;;;;;;93.43;35.20;;;0.00;99.90;;;;;;4222210;28;20090;-82
2022/01/18 00:05:44;;;;;;;91.50;33.65;;;0.00;99.90;;;;;;4223670;28;20083;-80
2022/01/18 00:07:48;;;;;;;73.60;32.30;;;0.00;99.90;;;;;;4252581;27;20094;-79
2022/01/18 00:09:50;;;;;;;79.47;33.90;;;0.00;99.90;;;;;;4217008;28;20597;-82
2022/01/18 00:12:13;;;;;;;75.20;31.25;;;0.00;99.90;;;;;;4215785;28;20113;-79
2022/01/18 00:14:39;;;;;;;78.22;34.20;;;0.00;99.90;;;;;;4219951;28;20067;-79
2022/01/18 00:17:01;;;;;;;69.65;32.17;;;0.00;99.90;;;;;;4216395;28;20121;-79
2022/01/18 00:19:08;;;;;;;70.53;34.25;;;0.00;99.90;;;;;;4207309;28;20055;-79
2022/01/18 00:21:19;;;;;;;66.38;32.22;;;0.00;99.90;;;;;;4242026;27;20085;-77
2022/01/18 00:23:23;;;;;;;65.25;31.60;;;-0.10;99.90;;;;;;4206590;28;20071;-78
2022/01/18 00:25:25;;;;;;;70.85;32.70;;;-0.10;99.90;;;;;;4214661;28;20135;-81
2022/01/18 00:27:27;;;;;;;67.47;33.17;;;-0.10;99.90;;;;;;4214466;28;20483;-79
2022/01/18 00:29:30;;;;;;;70.80;32.83;;;0.00;99.90;;;;;;4213957;28;20090;-80
2022/01/18 00:36:09;;;;;;;75.53;31.25;;;0.10;99.90;;;;;;4214695;28;20054;-79
2022/01/18 00:38:17;;;;;;;76.88;30.35;;;0.30;99.90;;;;;;4213566;28;20115;-79
2022/01/18 00:40:20;;;;;;;82.65;32.20;;;0.70;99.90;;;;;;4212096;28;20056;-78
2022/01/18 00:42:22;;;;;;;89.68;32.25;;;0.90;99.90;;;;;;4213249;28;20117;-79
2022/01/18 00:44:24;;;;;;;89.35;33.97;;;1.10;99.90;;;;;;4196766;28;20045;-79
2022/01/18 00:46:26;;;;;;;89.40;35.67;;;1.20;99.90;;;;;;4196363;28;20119;-80
2022/01/18 00:48:32;;;;;;;87.22;34.30;;;1.30;99.90;;;;;;4201744;28;20052;-79
2022/01/18 00:50:34;;;;;;;77.55;33.10;;;1.40;99.90;;;;;;4202197;28;20122;-80
2022/01/18 00:52:41;;;;;;;82.63;32.47;;;1.40;99.90;;;;;;4209396;28;20074;-79
2022/01/18 00:54:45;;;;;;;79.65;32.03;;;1.30;99.90;;;;;;4214783;27;20816;-79
2022/01/18 00:56:51;;;;;;;79.85;33.10;;;1.30;99.90;;;;;;4221582;28;20836;-80
2022/01/18 00:58:54;;;;;;;84.75;31.40;;;1.30;99.90;;;;;;4213995;28;20149;-79
2022/01/18 01:00:56;;;;;;;84.15;36.08;;;1.40;99.90;;;;;;4213103;28;20048;-79
2022/01/18 01:02:58;;;;;;;80.10;34.67;;;1.30;99.90;;;;;;4220928;28;20048;-80
2022/01/18 01:05:02;;;;;;;83.10;34.22;;;1.30;99.90;;;;;;4213950;28;20070;-79
2022/01/18 01:07:04;;;;;;;78.45;32.95;;;1.30;99.90;;;;;;4213920;28;20040;-81
2022/01/18 01:09:07;;;;;;;77.72;33.55;;;1.10;99.90;;;;;;4198952;28;20055;-79
2022/01/18 01:11:10;;;;;;;67.25;32.30;;;1.00;99.90;;;;;;4212601;28;20111;-79
2022/01/18 01:13:13;;;;;;;65.88;30.40;;;0.90;99.90;;;;;;4214360;28;20063;-79
2022/01/18 01:15:18;;;;;;;75.63;33.20;;;0.80;99.90;;;;;;4232652;27;20494;-78
2022/01/18 01:19:50;;;;;;;75.80;33.72;;;0.70;99.90;;;;;;4198523;28;20127;-78
2022/01/18 01:33:49;;;;;;;69.47;30.73;;;0.50;99.90;;;;;;4202361;28;20052;-78
2022/01/18 01:36:09;;;;;;;74.68;31.88;;;0.50;99.90;;;;;;4221286;28;20903;-81
2022/01/18 01:44:58;;;;;;;67.85;30.05;;;0.50;99.90;;;;;;4218087;28;20044;-78
2022/01/18 01:47:00;;;;;;;64.80;29.50;;;0.50;99.90;;;;;;4235742;27;20047;-78
2022/01/18 01:49:06;;;;;;;64.20;27.80;;;0.50;99.90;;;;;;4213547;28;20048;-79
2022/01/18 01:51:08;;;;;;;60.60;28.67;;;0.60;99.90;;;;;;4225380;28;20040;-79
2022/01/18 01:53:11;;;;;;;67.05;29.48;;;0.60;99.90;;;;;;4213136;28;20044;-80
2022/01/18 01:55:14;;;;;;;66.85;28.38;;;0.70;99.90;;;;;;4198742;28;20126;-79
2022/01/18 01:57:16;;;;;;;59.72;28.63;;;0.80;99.90;;;;;;4218409;28;20055;-79
2022/01/18 01:59:18;;;;;;;65.97;29.35;;;0.80;99.90;;;;;;4216840;28;20147;-79
2022/01/18 02:01:20;;;;;;;68.70;28.17;;;0.80;99.90;;;;;;4213733;28;20056;-79
2022/01/18 02:03:23;;;;;;;71.32;29.20;;;0.80;99.90;;;;;;4214809;28;20055;-79
2022/01/18 02:05:25;;;;;;;65.00;27.88;;;0.90;99.90;;;;;;4219176;28;20051;-78
2022/01/18 02:07:27;;;;;;;53.05;26.35;;;0.90;99.90;;;;;;4204169;28;20597;-79
2022/01/18 02:09:30;;;;;;;67.70;28.58;;;0.90;99.90;;;;;;4213836;28;20044;-78
2022/01/18 02:11:32;;;;;;;62.65;26.38;;;1.00;99.90;;;;;;4210332;28;20129;-79
2022/01/18 02:13:34;;;;;;;66.47;25.45;;;1.10;99.90;;;;;;4203599;28;20052;-77
2022/01/18 02:15:45;;;;;;;79.28;26.20;;;1.20;99.90;;;;;;4213797;28;20051;-78
2022/01/18 02:22:34;;;;;;;73.70;27.95;;;2.30;99.90;;;;;;4197654;28;20045;-79
2022/01/18 02:24:36;;;;;;;77.63;25.83;;;2.20;99.90;;;;;;4196750;28;20131;-79
2022/01/18 02:26:38;;;;;;;72.15;25.15;;;2.60;99.90;;;;;;4211765;28;20090;-79
2022/01/18 02:28:40;;;;;;;75.80;28.08;;;2.60;99.90;;;;;;4198230;28;20044;-80
2022/01/18 02:30:44;;;;;;;88.72;24.05;;;2.50;99.90;;;;;;4204631;28;20051;-80
2022/01/18 02:32:46;;;;;;;73.70;24.85;;;2.40;99.90;;;;;;4203107;28;20057;-79
2022/01/18 02:34:48;;;;;;;78.32;23.15;;;2.50;99.90;;;;;;4205991;28;20056;-80
2022/01/18 02:36:53;;;;;;;78.70;21.75;;;2.70;99.90;;;;;;4216718;28;20588;-82
2022/01/18 02:38:54;;;;;;;81.38;22.63;;;3.00;99.90;;;;;;4211955;28;20083;-79
2022/01/18 02:40:57;;;;;;;69.68;21.33;;;3.20;99.90;;;;;;4213145;28;20075;-78
2022/01/18 02:43:46;;;;;;;79.13;22.35;;;3.40;99.90;;;;;;4196010;28;20098;-80
2022/01/18 02:45:25;;;;;;;86.05;22.88;;;3.40;99.90;;;;;;4196687;28;20957;-83
2022/01/18 02:47:27;;;;;;;71.47;22.80;;;3.40;99.90;;;;;;4197376;28;20054;-83
2022/01/18 02:49:29;;;;;;;84.35;22.33;;;3.50;99.90;;;;;;4196651;28;20235;-84
2022/01/18 02:51:33;;;;;;;74.97;22.77;;;3.40;99.90;;;;;;4197397;28;20793;-79
2022/01/18 02:54:11;;;;;;;81.07;24.25;;;3.40;99.90;;;;;;4199087;28;20133;-79
2022/01/18 02:56:13;;;;;;;75.15;23.10;;;3.30;99.90;;;;;;4213173;28;20059;-84
2022/01/18 02:58:23;;;;;;;80.38;23.38;;;3.30;99.90;;;;;;4214400;28;20054;-80
2022/01/18 03:00:31;;;;;;;88.20;22.25;;;3.20;99.90;;;;;;4213149;28;20098;-79
2022/01/18 03:04:53;;;;;;;65.35;21.92;;;2.90;99.90;;;;;;4213741;28;20076;-79
2022/01/18 03:06:56;;;;;;;72.80;22.65;;;2.70;99.90;;;;;;4214884;28;20130;-79
2022/01/18 03:08:57;;;;;;;70.07;20.92;;;2.60;99.90;;;;;;4212844;28;20097;-80
2022/01/18 03:11:01;;;;;;;64.32;20.80;;;2.60;99.90;;;;;;4213944;28;20072;-81
2022/01/18 03:13:04;;;;;;;80.95;23.05;;;2.70;99.90;;;;;;4229019;28;20078;-78
2022/01/18 03:15:07;;;;;;;71.50;21.10;;;2.70;99.90;;;;;;4213210;28;20086;-80
2022/01/18 03:17:09;;;;;;;60.38;20.88;;;2.70;99.90;;;;;;4227533;28;20396;-81
2022/01/18 03:19:11;;;;;;;75.20;23.17;;;2.70;99.90;;;;;;4229941;28;20618;-80
2022/01/18 03:21:13;;;;;;;67.65;21.70;;;3.00;99.90;;;;;;4230228;28;20058;-79
2022/01/18 03:23:19;;;;;;;78.47;24.83;;;3.00;99.90;;;;;;4223959;28;20043;-80
2022/01/18 03:29:55;;;;;;;75.93;24.08;;;3.00;99.90;;;;;;4226305;28;20051;-79
2022/01/18 03:31:57;;;;;;;80.30;24.30;;;3.00;99.90;;;;;;4213384;28;20079;-79
2022/01/18 03:33:59;;;;;;;89.88;25.85;;;3.00;99.90;;;;;;4219290;28;20067;-78
2022/01/18 03:36:01;;;;;;;95.10;24.20;;;3.00;99.90;;;;;;4229776;28;20534;-78
2022/01/18 03:38:04;;;;;;;90.40;24.52;;;3.10;99.90;;;;;;4213410;28;20078;-83
2022/01/18 03:40:09;;;;;;;102.93;25.63;;;3.10;99.90;;;;;;4227149;28;20097;-79
2022/01/18 03:42:35;;;;;;;92.90;25.23;;;3.30;99.90;;;;;;4216489;28;20549;-78
2022/01/18 03:44:33;;;;;;;83.25;21.77;;;3.40;99.90;;;;;;4214552;28;20048;-78
2022/01/18 03:46:37;;;;;;;105.63;25.27;;;3.40;99.90;;;;;;4213287;28;20082;-78
2022/01/18 03:48:39;;;;;;;114.28;25.75;;;3.40;99.90;;;;;;4212593;28;20095;-78
2022/01/18 03:50:42;;;;;;;97.38;23.42;;;3.40;99.90;;;;;;4219522;28;20431;-79
2022/01/18 03:52:45;;;;;;;103.22;25.63;;;3.40;99.90;;;;;;4218107;28;20530;-80
2022/01/18 03:54:50;;;;;;;103.35;25.10;;;3.40;99.90;;;;;;4229046;28;20131;-78
2022/01/18 03:56:52;;;;;;;91.38;24.05;;;3.30;99.90;;;;;;4221257;28;20078;-78
2022/01/18 03:58:54;;;;;;;90.03;23.05;;;3.30;99.90;;;;;;4217096;28;20131;-78
2022/01/18 04:00:56;;;;;;;98.35;23.88;;;3.30;99.90;;;;;;4215513;28;20092;-79
2022/01/18 04:02:59;;;;;;;83.68;22.50;;;3.30;99.90;;;;;;4219307;28;20530;-78
2022/01/18 04:05:02;;;;;;;93.40;23.70;;;3.30;99.90;;;;;;4232796;28;20113;-79
2022/01/18 04:07:05;;;;;;;92.30;23.23;;;3.20;99.90;;;;;;4231801;28;20530;-78
2022/01/18 04:09:07;;;;;;;106.03;24.55;;;3.20;99.90;;;;;;4222802;28;20048;-79
2022/01/18 04:11:09;;;;;;;93.80;24.73;;;3.30;99.90;;;;;;4216208;28;20157;-78
2022/01/18 04:13:11;;;;;;;91.15;24.40;;;3.30;99.90;;;;;;4216916;28;20052;-78
2022/01/18 04:15:15;;;;;;;89.90;24.15;;;3.30;99.90;;;;;;4226456;28;20047;-78
2022/01/18 04:17:33;;;;;;;96.32;24.27;;;3.20;99.90;;;;;;4227170;28;20090;-78
2022/01/18 04:30:35;;;;;;;90.25;24.02;;;3.30;99.90;;;;;;4233647;27;20055;-78
2022/01/18 04:32:37;;;;;;;89.82;22.77;;;3.30;99.90;;;;;;4226485;28;20431;-78
2022/01/18 04:34:40;;;;;;;91.85;24.15;;;3.30;99.90;;;;;;4222117;28;20152;-77
2022/01/18 04:36:45;;;;;;;89.57;23.50;;;3.30;99.90;;;;;;4219213;28;20051;-78
2022/01/18 04:38:48;;;;;;;85.65;22.55;;;3.30;99.90;;;;;;4223020;28;20056;-79
2022/01/18 04:40:50;;;;;;;80.40;22.98;;;3.30;99.90;;;;;;4228219;27;20047;-81
2022/01/18 04:49:43;;;;;;;84.70;20.67;;;3.30;99.90;;;;;;4207589;28;20074;-78
2022/01/18 04:51:46;;;;;;;88.53;21.65;;;3.40;99.90;;;;;;4224115;28;20051;-80
2022/01/18 04:53:56;;;;;;;86.47;20.98;;;3.30;99.90;;;;;;4232512;28;20040;-79
2022/01/18 04:56:04;;;;;;;82.97;21.42;;;3.40;99.90;;;;;;4230591;28;20094;-80
2022/01/18 04:58:06;;;;;;;84.03;22.38;;;3.40;99.90;;;;;;4224313;28;20051;-78
2022/01/18 05:00:09;;;;;;;84.97;21.00;;;3.40;99.90;;;;;;4231518;28;20101;-78
2022/01/18 05:02:11;;;;;;;87.65;21.73;;;3.40;99.90;;;;;;4215324;28;20098;-79
2022/01/18 05:04:13;;;;;;;85.10;21.42;;;3.40;99.90;;;;;;4219663;28;20546;-81
2022/01/18 05:06:17;;;;;;;82.10;20.88;;;3.40;99.90;;;;;;4231691;28;20082;-79
2022/01/18 05:08:20;;;;;;;94.05;22.45;;;3.30;99.90;;;;;;4230552;28;20052;-79
2022/01/18 05:10:25;;;;;;;96.45;21.70;;;3.30;99.90;;;;;;4224204;28;20047;-83
2022/01/18 05:12:46;;;;;;;95.65;22.70;;;3.20;99.90;;;;;;4215556;28;20044;-80
2022/01/18 05:14:48;;;;;;;85.78;21.17;;;3.20;99.90;;;;;;4226217;28;20056;-78
2022/01/18 05:17:08;;;;;;;86.97;22.08;;;3.20;99.90;;;;;;4227780;28;20154;-82
2022/01/18 05:19:18;;;;;;;95.72;22.63;;;3.20;99.90;;;;;;4231626;28;20093;-79
2022/01/18 05:21:27;;;;;;;105.13;24.98;;;3.20;99.90;;;;;;4225540;28;20062;-83
2022/01/18 05:23:29;;;;;;;87.15;23.25;;;3.20;99.90;;;;;;4217463;28;20048;-80
2022/01/18 05:25:32;;;;;;;89.82;22.55;;;3.20;99.90;;;;;;4232620;28;20079;-81
2022/01/18 05:27:34;;;;;;;97.50;22.58;;;3.10;99.90;;;;;;4232518;28;20134;-80
2022/01/18 05:29:36;;;;;;;107.50;25.55;;;3.10;99.90;;;;;;4220843;28;20062;-80
2022/01/18 05:31:38;;;;;;;89.95;23.35;;;3.10;99.90;;;;;;4214549;28;20051;-80
2022/01/18 05:33:42;;;;;;;97.57;22.92;;;3.10;99.90;;;;;;4221871;28;20047;-79
2022/01/18 05:35:44;;;;;;;96.20;24.48;;;3.10;99.90;;;;;;4221511;28;20043;-80
2022/01/18 05:37:51;;;;;;;95.78;24.95;;;3.10;99.90;;;;;;4218079;28;20097;-79
2022/01/18 05:39:53;;;;;;;102.30;24.50;;;3.20;99.90;;;;;;4214835;28;20531;-78
2022/01/18 05:41:55;;;;;;;103.10;24.40;;;3.20;99.90;;;;;;4215088;28;20132;-81
2022/01/18 05:43:57;;;;;;;93.20;24.17;;;3.20;99.90;;;;;;4215128;28;20056;-79
2022/01/18 05:46:00;;;;;;;106.55;24.73;;;3.20;99.90;;;;;;4229213;28;20130;-79
2022/01/18 05:48:02;;;;;;;104.57;25.40;;;3.20;99.90;;;;;;4214303;28;20075;-82
2022/01/18 05:50:05;;;;;;;106.45;25.25;;;3.10;99.90;;;;;;4215743;28;20044;-79
2022/01/18 05:52:07;;;;;;;102.38;25.45;;;3.10;99.90;;;;;;4214899;28;20776;-80
2022/01/18 05:54:09;;;;;;;100.88;25.40;;;3.10;99.90;;;;;;4217254;28;20052;-80
2022/01/18 05:56:11;;;;;;;103.47;25.92;;;3.10;99.90;;;;;;4222415;28;20419;-79
2022/01/18 05:58:13;;;;;;;105.70;25.33;;;3.10;99.90;;;;;;4219576;28;20055;-79
2022/01/18 06:00:22;;;;;;;100.55;24.92;;;3.00;99.90;;;;;;4230375;28;20059;-78
2022/01/18 06:02:42;;;;;;;97.93;24.63;;;3.10;99.90;;;;;;4224470;28;20732;-86
2022/01/18 06:07:05;;;;;;;105.93;25.73;;;3.00;99.90;;;;;;4232125;28;20039;-82
2022/01/18 06:09:07;;;;;;;96.30;25.42;;;3.10;99.90;;;;;;4223507;28;20056;-81
2022/01/18 06:11:09;;;;;;;106.70;25.38;;;3.00;99.90;;;;;;4230057;28;20093;-82
2022/01/18 06:13:13;;;;;;;102.22;24.42;;;3.10;99.90;;;;;;4231231;28;20044;-80
2022/01/18 06:15:15;;;;;;;98.65;25.40;;;3.00;99.90;;;;;;4230634;28;20104;-79
2022/01/18 06:17:17;;;;;;;102.97;26.38;;;3.00;99.90;;;;;;4229147;28;20047;-81
2022/01/18 06:19:20;;;;;;;88.57;24.15;;;3.00;99.90;;;;;;4220877;28;20492;-80
2022/01/18 06:21:22;;;;;;;92.85;25.02;;;3.00;99.90;;;;;;4214296;28;20055;-80
2022/01/18 06:23:24;;;;;;;97.82;25.88;;;3.00;99.90;;;;;;4215592;28;20059;-80
2022/01/18 06:25:26;;;;;;;95.25;25.15;;;2.90;99.90;;;;;;4216490;28;20509;-81
2022/01/18 06:27:28;;;;;;;101.78;24.88;;;2.90;99.90;;;;;;4213990;28;20641;-80
2022/01/18 06:29:30;;;;;;;95.55;24.30;;;2.80;99.90;;;;;;4225886;28;20047;-80
2022/01/18 06:31:32;;;;;;;84.97;22.85;;;2.80;99.90;;;;;;4229959;28;20086;-80
2022/01/18 06:33:35;;;;;;;99.28;22.95;;;2.80;99.90;;;;;;4231291;27;20093;-80
2022/01/18 06:35:38;;;;;;;98.85;24.75;;;2.70;99.90;;;;;;4221844;28;20071;-80
2022/01/18 06:37:40;;;;;;;117.88;24.55;;;2.80;99.90;;;;;;4214762;28;20048;-80
2022/01/18 06:39:43;;;;;;;136.80;26.15;;;2.80;99.90;;;;;;4228601;28;20081;-80
2022/01/18 06:41:45;;;;;;;110.57;23.45;;;2.70;99.90;;;;;;4214116;28;20797;-82
2022/01/18 06:43:47;;;;;;;114.22;26.27;;;2.70;99.90;;;;;;4226850;28;20130;-79
2022/01/18 06:45:49;;;;;;;97.85;21.25;;;2.60;99.90;;;;;;4230829;28;20128;-81
2022/01/18 06:47:51;;;;;;;94.00;22.80;;;2.60;99.90;;;;;;4222098;28;20072;-79
2022/01/18 06:49:54;;;;;;;91.75;22.08;;;2.50;99.90;;;;;;4221968;28;20044;-80
2022/01/18 06:51:56;;;;;;;83.45;21.95;;;2.50;99.90;;;;;;4229710;28;20043;-81
2022/01/18 06:53:58;;;;;;;81.47;19.13;;;2.50;99.90;;;;;;4230695;28;20039;-80
2022/01/18 06:56:02;;;;;;;103.35;20.90;;;2.50;99.90;;;;;;4230836;28;20510;-79
2022/01/18 06:58:04;;;;;;;71.45;19.67;;;2.50;99.90;;;;;;4230913;28;20069;-79
2022/01/18 07:00:07;;;;;;;67.88;19.55;;;2.40;99.90;;;;;;4220076;28;20048;-79
2022/01/18 07:02:10;;;;;;;68.80;19.08;;;2.40;99.90;;;;;;4216173;28;20067;-81
2022/01/18 07:04:12;;;;;;;95.35;22.08;;;2.40;99.90;;;;;;4215568;28;20044;-81
2022/01/18 07:06:15;;;;;;;125.95;21.77;;;2.40;99.90;;;;;;4219937;28;20091;-79
2022/01/18 07:08:18;;;;;;;93.00;20.02;;;2.40;99.90;;;;;;4213791;28;20040;-80
2022/01/18 07:10:20;;;;;;;126.13;22.55;;;2.40;99.90;;;;;;4220510;28;20051;-79
2022/01/18 07:12:23;;;;;;;96.18;19.80;;;2.40;99.90;;;;;;4214096;28;20094;-79
2022/01/18 07:14:25;;;;;;;120.22;23.02;;;2.40;99.90;;;;;;4214131;28;20051;-79
2022/01/18 07:16:27;;;;;;;98.53;21.20;;;2.50;99.90;;;;;;4217036;28;20059;-79
2022/01/18 07:18:29;;;;;;;136.90;22.40;;;2.50;99.90;;;;;;4215701;28;20048;-79
2022/01/18 07:20:31;;;;;;;157.15;23.42;;;2.50;99.90;;;;;;4220610;28;20079;-78
2022/01/18 07:22:34;;;;;;;176.20;24.95;;;2.60;99.90;;;;;;4217612;28;20108;-79
2022/01/18 07:24:38;;;;;;;124.35;22.27;;;2.60;99.90;;;;;;4227528;28;20079;-79
2022/01/18 07:26:40;;;;;;;151.27;24.07;;;2.60;99.90;;;;;;4231695;28;20047;-81
2022/01/18 07:28:43;;;;;;;166.05;24.15;;;2.60;99.90;;;;;;4233765;28;20823;-81
2022/01/18 07:30:46;;;;;;;115.72;24.83;;;2.70;99.90;;;;;;4229904;28;20067;-79
2022/01/18 07:32:48;;;;;;;105.07;22.50;;;2.70;99.90;;;;;;4230091;28;20127;-79
2022/01/18 07:34:54;;;;;;;106.22;23.02;;;2.70;99.90;;;;;;4215089;28;20613;-81
2022/01/18 07:36:56;;;;;;;87.55;22.38;;;2.70;99.90;;;;;;4226085;28;20423;-76
2022/01/18 07:38:58;;;;;;;150.23;26.67;;;2.80;99.90;;;;;;4217614;27;20135;-81
2022/01/18 07:41:00;;;;;;;144.88;24.63;;;2.80;99.90;;;;;;4244285;27;20110;-79
2022/01/18 07:43:04;;;;;;;159.20;26.55;;;2.80;99.90;;;;;;4248253;27;20043;-79
2022/01/18 07:45:06;;;;;;;109.53;24.23;;;2.80;99.90;;;;;;4246201;27;20054;-79
2022/01/18 07:47:08;;;;;;;129.88;25.65;;;2.80;99.90;;;;;;4230051;28;20510;-81
2022/01/18 07:49:10;;;;;;;166.40;26.50;;;2.90;99.90;;;;;;4219525;28;20127;-78
2022/01/18 07:51:13;;;;;;;105.47;24.80;;;2.90;99.90;;;;;;4218261;28;20068;-80
2022/01/18 07:53:15;;;;;;;102.85;25.17;;;2.90;99.90;;;;;;4184994;22;20061;-80
2022/01/18 07:55:17;;;;;;;155.40;39.85;;;2.90;99.90;;;;;;4164116;28;20513;-85
2022/01/18 07:57:20;;;;;;;158.85;35.90;;;3.00;99.90;;;;;;4166437;28;20045;-79
2022/01/18 07:59:22;;;;;;;152.10;29.40;;;3.00;99.90;;;;;;4166376;28;20481;-79
2022/01/18 08:01:24;;;;;;;177.07;36.95;;;3.00;99.90;;;;;;4164979;28;20072;-76
2022/01/18 08:03:29;;;;;;;147.00;29.55;;;3.10;99.90;;;;;;4167701;28;20076;-77
2022/01/18 08:05:31;;;;;;;114.20;30.87;;;3.10;99.90;;;;;;4170173;28;20169;-76
2022/01/18 08:07:33;;;;;;;124.70;31.10;;;3.10;99.90;;;;;;4166618;28;20497;-78
2022/01/18 08:09:36;;;;;;;139.20;29.63;;;3.10;99.90;;;;;;4165896;28;20060;-77
2022/01/18 08:11:38;;;;;;;106.97;28.70;;;3.20;99.90;;;;;;4159577;28;20045;-75
2022/01/18 08:13:41;;;;;;;97.50;26.75;;;3.10;99.90;;;;;;4162675;28;20509;-76
2022/01/18 08:15:56;;;;;;;102.35;27.63;;;3.10;99.90;;;;;;4165082;28;20089;-76
2022/01/18 08:17:59;;;;;;;84.05;26.38;;;3.10;99.90;;;;;;4164273;28;20053;-77
2022/01/18 08:20:02;;;;;;;91.88;26.98;;;3.10;99.90;;;;;;4163290;28;20057;-77
2022/01/18 08:22:04;;;;;;;101.40;28.38;;;3.10;99.90;;;;;;4157146;28;20112;-77
2022/01/18 08:24:06;;;;;;;103.78;26.60;;;3.10;99.90;;;;;;4171819;28;20125;-77
2022/01/18 08:26:08;;;;;;;94.53;26.70;;;3.10;99.90;;;;;;4162176;28;20075;-77
2022/01/18 08:28:10;;;;;;;102.00;26.77;;;3.10;99.90;;;;;;4156391;28;20077;-77
2022/01/18 08:30:16;;;;;;;101.60;25.25;;;3.00;99.90;;;;;;4149310;28;20560;-79
2022/01/18 08:32:18;;;;;;;110.75;26.13;;;3.00;99.90;;;;;;4159052;28;20049;-77
2022/01/18 08:34:21;;;;;;;95.05;24.65;;;3.00;99.90;;;;;;4164147;28;20136;-76
2022/01/18 08:36:23;;;;;;;93.80;26.73;;;3.00;99.90;;;;;;4149135;28;20081;-77
2022/01/18 08:38:25;;;;;;;103.95;25.52;;;2.90;99.90;;;;;;4149740;28;20490;-79
2022/01/18 08:40:27;;;;;;;99.57;25.20;;;2.90;99.90;;;;;;4162220;28;20073;-78
2022/01/18 08:42:29;;;;;;;85.75;26.45;;;2.90;99.90;;;;;;4165263;28;20053;-74
2022/01/18 08:44:31;;;;;;;87.72;26.80;;;2.80;99.90;;;;;;4165707;28;20741;-76
2022/01/18 08:46:33;;;;;;;76.40;23.75;;;2.90;99.90;;;;;;4170963;28;20087;-75
2022/01/18 08:48:36;;;;;;;86.55;25.08;;;2.80;99.90;;;;;;4168828;28;20067;-75
2022/01/18 08:50:38;;;;;;;85.30;24.40;;;2.80;99.90;;;;;;4166510;28;20622;-75
2022/01/18 08:52:42;;;;;;;90.43;19.67;;;2.80;99.90;;;;;;4164259;28;20494;-75
2022/01/18 08:54:44;;;;;;;105.63;27.48;;;2.80;99.90;;;;;;4165542;28;20128;-78
2022/01/18 08:56:46;;;;;;;87.03;27.30;;;2.80;99.90;;;;;;4148738;28;20057;-76
2022/01/18 08:58:56;;;;;;;93.78;26.88;;;2.80;99.90;;;;;;4166532;28;20593;-76
2022/01/18 09:00:58;;;;;;;91.13;25.70;;;2.80;99.90;;;;;;4163236;28;20436;-76
2022/01/18 09:03:02;;;;;;;91.80;27.08;;;2.80;99.90;;;;;;4159440;28;20042;-77
2022/01/18 09:05:04;;;;;;;95.22;27.70;;;2.80;99.90;;;;;;4156676;28;20046;-75
2022/01/18 09:07:09;;;;;;;100.80;25.70;;;2.80;99.90;;;;;;4157091;28;20056;-79
2022/01/18 09:09:14;;;;;;;;;;;2.80;99.90;;;;;;4161903;28;20045;-78
2022/01/18 09:11:16;;;;;;;83.00;24.50;;;2.80;99.90;;;;;;4163030;28;19921;-76
2022/01/18 09:13:18;;;;;;;91.22;25.67;;;2.80;99.90;;;;;;4158453;28;20050;-76
2022/01/18 09:15:20;;;;;;;75.32;25.10;;;2.90;99.90;;;;;;4154082;28;20112;-78
2022/01/18 09:17:23;;;;;;;82.78;25.08;;;2.90;99.90;;;;;;4158735;28;20762;-77
2022/01/18 09:19:25;;;;;;;80.93;26.48;;;2.90;99.90;;;;;;4162251;28;20559;-82
2022/01/18 09:21:27;;;;;;;79.15;26.38;;;2.80;99.90;;;;;;4158553;28;20077;-83
2022/01/18 09:23:30;;;;;;;84.07;27.92;;;2.90;99.90;;;;;;4155307;28;20099;-81
2022/01/18 09:25:32;;;;;;;82.90;28.88;;;2.90;99.90;;;;;;4164469;28;20453;-81
2022/01/18 09:27:35;;;;;;;82.80;28.52;;;2.90;99.90;;;;;;4165211;28;20449;-80
2022/01/18 09:29:39;;;;;;;86.95;29.98;;;2.90;99.90;;;;;;4163608;28;20429;-81
2022/01/18 09:31:42;;;;;;;;;;;2.90;99.90;;;;;;4161749;28;20049;-82
2022/01/18 09:33:44;;;;;;;133.35;49.42;;;2.90;99.90;;;;;;4169841;28;19999;-82
2022/01/18 09:35:46;;;;;;;207.32;78.97;;;2.90;99.90;;;;;;4151264;28;20042;-79
2022/01/18 09:37:48;;;;;;;593.83;268.15;;;3.00;99.90;;;;;;4150265;28;20137;-80
2022/01/18 09:39:53;;;;;;;763.47;384.80;;;3.00;99.90;;;;;;4149511;28;20061;-75
2022/01/18 09:41:58;;;;;;;334.80;142.65;;;3.00;99.90;;;;;;4165741;28;20073;-80
2022/01/18 09:44:00;;;;;;;208.93;84.35;;;3.00;99.90;;;;;;4155954;28;20045;-81
2022/01/18 09:46:02;;;;;;;98.03;39.63;;;3.00;99.90;;;;;;4150574;28;20493;-82
2022/01/18 09:48:04;;;;;;;91.95;36.70;;;3.10;99.90;;;;;;4164076;28;20049;-83
2022/01/18 09:50:10;;;;;;;83.65;32.88;;;3.10;99.90;;;;;;4147742;28;20662;-82
2022/01/18 09:52:12;;;;;;;85.07;33.40;;;3.10;99.90;;;;;;4162860;28;20136;-81
2022/01/18 09:54:14;;;;;;;80.18;31.80;;;3.10;99.90;;;;;;4160526;28;20072;-83
2022/01/18 09:56:16;;;;;;;77.45;31.30;;;3.20;99.90;;;;;;4157281;28;20072;-80
2022/01/18 09:58:19;;;;;;;75.32;32.30;;;3.20;99.90;;;;;;4172480;28;20596;-83
2022/01/18 10:00:23;;;;;;;77.85;31.63;;;3.20;99.90;;;;;;4163005;28;20041;-82
2022/01/18 10:02:26;;;;;;;68.43;30.40;;;3.30;99.90;;;;;;4157599;28;20050;-81
2022/01/18 10:04:31;;;;;;;72.65;29.83;;;3.30;99.90;;;;;;4159056;28;20049;-82
2022/01/18 10:06:33;;;;;;;69.57;30.15;;;3.30;99.90;;;;;;4153290;28;20046;-83
2022/01/18 10:08:38;;;;;;;74.13;30.48;;;3.40;99.90;;;;;;4163792;28;20464;-82
2022/01/18 10:10:49;;;;;;;61.38;28.13;;;3.40;99.90;;;;;;4162928;28;20515;-83
2022/01/18 10:12:57;;;;;;;64.45;29.15;;;3.50;99.90;;;;;;4160973;28;20060;-83
2022/01/18 10:15:03;;;;;;;66.80;28.58;;;3.50;99.90;;;;;;4156642;28;20459;-82
2022/01/18 10:17:07;;;;;;;60.63;27.38;;;3.50;99.90;;;;;;4152517;28;20060;-82
2022/01/18 10:19:09;;;;;;;63.97;26.35;;;3.60;99.90;;;;;;4148589;28;20104;-82
2022/01/18 10:21:33;;;;;;;59.03;24.63;;;3.70;99.90;;;;;;4157129;28;20140;-79
2022/01/18 10:23:37;;;;;;;58.67;24.33;;;3.70;99.90;;;;;;4172693;28;20053;-82
2022/01/18 10:25:39;;;;;;;59.65;25.70;;;3.90;99.90;;;;;;4151543;28;20076;-80
2022/01/18 10:27:41;;;;;;;65.85;29.70;;;4.00;99.90;;;;;;4161488;28;20588;-80
2022/01/18 10:29:51;;;;;;;65.28;28.08;;;4.00;99.90;;;;;;4158341;28;20076;-82
2022/01/18 10:36:28;;;;;;;75.55;33.17;;;4.00;99.90;;;;;;4161424;28;20559;-79
2022/01/18 10:38:33;;;;;;;73.90;35.78;;;4.10;99.90;;;;;;4159415;28;20460;-81
2022/01/18 10:40:35;;;;;;;;;;;4.10;99.90;;;;;;4150411;28;20058;-78
2022/01/18 10:42:48;;;;;;;107.32;50.53;;;4.20;99.90;;;;;;4160392;28;19925;-78
2022/01/18 10:45:09;;;;;;;108.55;49.70;;;4.30;99.90;;;;;;4156531;28;20084;-79
2022/01/18 10:47:11;;;;;;;78.95;38.25;;;4.40;99.90;;;;;;4155437;28;20049;-80
2022/01/18 10:49:34;;;;;;;61.25;30.55;;;4.40;99.90;;;;;;4155181;28;20077;-82
2022/01/18 10:51:40;;;;;;;51.97;23.83;;;4.50;99.90;;;;;;4155449;28;20081;-80
2022/01/18 10:53:59;;;;;;;50.75;24.75;;;4.60;99.90;;;;;;4163526;28;20087;-81
2022/01/18 10:56:14;;;;;;;59.13;29.13;;;4.70;99.90;;;;;;4161563;28;20077;-81
2022/01/18 10:58:20;;;;;;;49.53;26.05;;;4.70;99.90;;;;;;4170443;28;20049;-82
2022/01/18 11:00:25;;;;;;;68.72;31.23;;;4.80;99.90;;;;;;4162016;28;20041;-83
2022/01/18 11:02:31;;;;;;;64.15;32.25;;;4.80;99.90;;;;;;4160304;28;20612;-82
2022/01/18 11:04:33;;;;;;;71.30;34.28;;;4.80;99.90;;;;;;4167974;28;20045;-81
2022/01/18 11:06:36;;;;;;;77.00;34.50;;;4.80;99.90;;;;;;4152131;28;20049;-80
2022/01/18 11:08:38;;;;;;;64.60;32.78;;;4.90;99.90;;;;;;4174588;28;20076;-80
2022/01/18 11:10:42;;;;;;;69.97;29.23;;;4.90;99.90;;;;;;4165551;28;20046;-80
2022/01/18 11:13:20;;;;;;;54.00;27.75;;;4.90;99.90;;;;;;4162100;28;20064;-81
2022/01/18 11:15:23;;;;;;;57.22;25.40;;;4.90;99.90;;;;;;4169629;28;20120;-81
2022/01/18 11:17:26;;;;;;;52.80;26.30;;;4.90;99.90;;;;;;4157578;28;20081;-81
2022/01/18 11:19:32;;;;;;;58.72;27.75;;;4.90;99.90;;;;;;4170994;28;20501;-82
2022/01/18 11:21:35;;;;;;;59.35;27.50;;;4.90;99.90;;;;;;4182307;28;20128;-81
2022/01/18 11:23:37;;;;;;;56.85;28.30;;;5.00;99.90;;;;;;4181155;28;20095;-80
2022/01/18 11:25:40;;;;;;;57.85;30.30;;;5.00;99.90;;;;;;4161879;28;20049;-78
2022/01/18 11:27:47;;;;;;;58.72;29.65;;;5.10;99.90;;;;;;4163740;28;20068;-81
2022/01/18 11:29:49;;;;;;;54.85;28.27;;;5.10;99.90;;;;;;4180978;28;20434;-80
2022/01/18 11:31:53;;;;;;;53.97;27.55;;;5.10;99.90;;;;;;4163538;28;20076;-81
2022/01/18 11:33:59;;;;;;;52.90;27.17;;;5.20;99.90;;;;;;4178547;28;20046;-81
2022/01/18 11:36:06;;;;;;;49.15;27.20;;;5.30;99.90;;;;;;4163402;28;20445;-81
2022/01/18 11:38:50;;;;;;;63.17;27.48;;;5.30;99.90;;;;;;4152298;28;20042;-81
2022/01/18 11:40:55;;;;;;;51.50;27.70;;;5.40;99.90;;;;;;4162922;28;20049;-81